Enders, Arkansas
Current Conditions -  °F | °C
As of 7:55 PM on Thursday 18 Dec 2014 (Local Time) from KCCA Reporting Station
Haze Haze  
Wind Chill: 41°   Ceiling: 800
Heat Index: 41°   Visibility: 5mi
Dew Point: 39°   Wind: 0mph
Humidity: 93%   Direction: NA
Pressure: 30.25"   Gusts: NA
Location:  35.4081°N, 92.1263°W
Report Text: KCCA 190155Z AUTO 00000KT 5SM BR OVC008 05/04 A3025 RMK AO2
Loading
Personal Weather Stations






























Interactive Weather Map New forecast layout! Learn more

10-Day Weather Forecast

Advertisements
Track Severe Weather on mobile